Latest Weather Observations for Curtin

IDW60801

Issued at 2:03 pm WST Friday 19 December 2014 (issued every 30 minutes, with the page automatically refreshed every 10 minutes)

About weather observations | Map of weather stations | Latest weather observations for WA | Other Formats
Station Details ID: 003080 Name: CURTIN AERO Lat: -17.58 Lon: 123.83 Height: 77.5 m
Data from the previous 72 hours. | See also: Recent months at Curtin
Date/Time
WST
Temp
°C
App
Temp
°C
Dew
Point
Rel
Hum
%
Delta-T
°C
Wind Press
QNH
hPa
Press
MSL
hPa
Rain
since 9 am
mm
Dir
 
Spd
km/h
Gust
km/h
Spd
kts
Gust
kts
19/02:00pm 33.7 36.1 23.7 56 7.0 E 17 24 9 13 1008.5 1007.9 0.0
19/01:30pm 32.9 35.1 23.2 56 6.7 ENE 17 26 9 14 1009.0 1008.4 0.0
19/01:00pm 33.2 35.1 23.5 56 6.8 SE 19 26 10 14 1009.5 1008.9 0.0
19/12:30pm 33.3 36.7 24.7 60 6.1 ESE 15 26 8 14 1010.0 1009.4 0.0
19/12:00pm 32.1 36.3 24.7 65 5.2 SSE 11 20 6 11 1010.3 1009.7 0.0
19/11:30am 31.5 35.2 23.9 64 5.3 SE 11 19 6 10 1010.6 1010.0 0.0
19/11:00am 31.2 34.6 24.1 66 5.0 S 13 19 7 10 1010.9 1010.3 0.0
19/10:30am 31.0 34.9 22.9 62 5.6 W 7 11 4 6 1011.1 1010.5 0.0
19/10:00am 30.5 34.8 23.7 67 4.7 SSW 7 9 4 5 1011.1 1010.5 0.0
19/09:30am 29.6 34.2 24.2 73 3.8 SSE 7 11 4 6 1011.4 1010.8 0.0
19/09:00am 28.9 33.2 23.3 72 3.9 WNW 6 7 3 4 1011.4 1010.8 9.2
19/08:30am 28.4 33.6 23.5 75 3.4 WNW 2 7 1 4 1011.4 1010.8 9.2
19/08:00am 27.8 32.2 23.4 77 3.0 NE 6 9 3 5 1011.1 1010.5 9.2
19/07:30am 27.2 31.4 23.2 79 2.7 ENE 6 9 3 5 1011.1 1010.5 9.2
19/07:00am 27.1 32.3 23.6 81 2.4 ESE 2 7 1 4 1010.6 1010.0 9.2
19/06:30am 26.7 31.3 23.8 84 2.0 SE 6 9 3 5 1010.1 1009.5 9.2
19/06:00am 26.2 29.7 23.5 85 1.9 S 11 13 6 7 1009.7 1009.1 9.2
19/05:30am 25.9 29.7 23.4 86 1.7 SSE 9 13 5 7 1009.6 1009.0 9.2
19/05:00am 25.9 29.5 23.8 88 1.4 S 11 15 6 8 1009.1 1008.5 9.2
19/04:30am 25.7 28.9 23.7 89 1.4 S 13 19 7 10 1009.0 1008.4 9.2
19/04:00am 25.7 28.5 23.6 88 1.4 SSE 15 20 8 11 1008.8 1008.2 9.2
19/03:30am 25.5 27.1 23.9 91 1.1 S 22 30 12 16 1008.9 1008.3 9.2
19/03:00am 25.7 28.3 23.9 90 1.2 SSE 17 24 9 13 1009.2 1008.6 9.2
19/02:30am 25.6 28.1 23.8 90 1.2 SSE 17 22 9 12 1009.0 1008.4 9.2
19/02:00am 25.5 27.7 23.9 91 1.1 SSE 19 30 10 16 1008.4 1007.8 9.2
19/01:30am 25.1 29.7 24.2 95 0.6 NNE 7 9 4 5 1007.1 1006.5 9.2
19/01:00am 24.9 28.6 23.9 94 0.7 NNE 11 15 6 8 1007.7 1007.1 9.2
19/12:30am 24.9 28.7 24.7 99 0.1 NNE 13 17 7 9 1008.3 1007.7 9.2
19/12:00am 24.8 29.1 24.3 97 0.3 N 9 13 5 7 1009.2 1008.6 9.0
 
Date/Time
WST
Temp
°C
App
Temp
°C
Dew
Point
Rel
Hum
%
Delta-T
°C
Wind Press
QNH
hPa
Press
MSL
hPa
Rain
since 9 am
mm
Dir
 
Spd
km/h
Gust
km/h
Spd
kts
Gust
kts
18/11:30pm 24.6 28.2 24.4 99 0.1 NNW 13 20 7 11 1009.8 1009.2 8.8
18/11:00pm 24.7 28.4 24.5 99 0.1 N 13 17 7 9 1011.0 1010.4 8.4
18/10:30pm 24.8 28.5 24.5 98 0.2 N 13 17 7 9 1011.7 1011.1 7.8
18/10:00pm 24.8 28.5 24.5 98 0.2 NNE 13 20 7 11 1012.3 1011.7 7.0
18/09:30pm 24.6 28.0 24.1 97 0.3 SE 13 19 7 10 1013.1 1012.5 6.0
18/09:00pm 25.0 29.6 24.1 95 0.6 ESE 7 15 4 8 1012.6 1012.0 4.8
18/08:46pm 24.5 27.1 24.0 97 0.3 SW 17 28 9 15 1012.0 1011.4 4.8
18/08:30pm 24.8 25.3 23.9 95 0.6 SSW 28 39 15 21 1010.0 1009.4 3.8
18/08:00pm 27.2 29.0 23.2 79 2.7 SE 19 30 10 16 1009.7 1009.1 0.0
18/07:55pm 27.6 28.8 22.1 72 3.7 SE 19 32 10 17 1009.3 1008.7 0.0
18/07:30pm 28.0 28.9 22.7 73 3.6 ENE 22 41 12 22 1007.3 1006.7 0.0
18/07:00pm 27.6 26.2 22.3 73 3.6 ENE 33 50 18 27 1008.3 1007.7 0.0
18/06:36pm 30.7 30.5 22.8 62 5.4 NE 28 46 15 25 1007.4 1006.8 0.0
18/06:30pm 31.2 32.6 22.5 60 6.0 NE 19 46 10 25 1007.4 1006.8 0.0
18/06:00pm 34.2 37.5 23.9 55 7.2 NNW 13 20 7 11 1006.0 1005.4 0.0
18/05:30pm 35.6 38.9 23.9 51 8.2 NW 13 20 7 11 1005.1 1004.5 0.0
18/05:00pm 36.4 38.8 23.6 47 9.0 NW 17 24 9 13 1005.0 1004.4 0.0
18/04:30pm 37.0 39.9 23.8 46 9.3 NW 15 22 8 12 1004.7 1004.0 0.0
18/04:00pm 37.8 41.3 24.2 46 9.7 NNW 13 17 7 9 1004.0 1003.3 0.0
18/03:30pm 36.7 40.4 23.2 46 9.4 NW 9 13 5 7 1003.9 1003.2 0.0
18/03:00pm 35.6 38.9 23.9 51 8.2 NNW 13 24 7 13 1004.2 1003.5 0.0
18/02:30pm 36.1 39.3 23.0 46 9.1 W 11 20 6 11 1004.8 1004.2 0.0
18/02:00pm 38.1 41.3 23.7 43 10.2 SW 13 19 7 10 1005.5 1004.9 0.0
18/01:30pm 36.9 40.3 23.4 46 9.5 SW 11 22 6 12 1005.9 1005.3 0.0
18/01:00pm 36.1 39.5 23.3 47 9.0 SSW 11 15 6 8 1006.4 1005.8 0.0
18/12:30pm 36.3 40.5 23.2 47 9.1 ESE 6 11 3 6 1006.9 1006.3 0.0
18/12:00pm 35.9 40.3 23.8 49 8.5 NNW 7 15 4 8 1007.4 1006.8 0.0
18/11:30am 35.6 40.4 24.5 52 7.9 SSE 7 11 4 6 1007.8 1007.2 0.0
18/11:00am 34.9 39.0 23.9 53 7.7 SSW 9 13 5 7 1008.1 1007.5 0.0
18/10:30am 33.9 37.6 23.9 56 7.0 SW 11 17 6 9 1008.4 1007.8 0.0
18/10:00am 33.7 38.0 24.3 58 6.6 WSW 9 19 5 10 1008.6 1008.0 0.0
18/09:30am 33.4 38.4 25.4 63 5.7 SSW 9 17 5 9 1009.0 1008.4 0.0
18/09:00am 32.1 36.0 24.9 65 5.1 WSW 13 17 7 9 1008.9 1008.3 0.0
18/08:30am 31.8 36.4 25.9 71 4.2 SW 13 20 7 11 1009.0 1008.4 0.0
18/08:00am 30.8 34.4 25.6 74 3.7 SW 17 20 9 11 1009.0 1008.4 0.0
18/07:30am 30.0 33.9 25.5 77 3.2 WSW 15 20 8 11 1008.8 1008.2 0.0
18/07:00am 29.5 33.7 25.9 81 2.6 WSW 15 20 8 11 1008.5 1007.9 0.0
18/06:30am 28.9 34.2 25.9 84 2.1 WSW 9 15 5 8 1008.2 1007.6 0.0
18/06:00am 28.2 34.0 26.6 91 1.1 WSW 9 11 5 6 1007.9 1007.3 0.0
18/05:30am 27.0 32.9 25.9 94 0.8 W 6 6 3 3 1007.7 1007.1 0.0
18/05:00am 27.2 33.0 26.0 93 0.9 WSW 7 9 4 5 1007.1 1006.5 0.0
18/04:30am 27.3 33.0 25.9 92 1.0 W 7 9 4 5 1006.9 1006.3 0.0
18/04:00am 27.4 33.0 25.8 91 1.1 W 7 9 4 5 1006.7 1006.1 0.0
18/03:30am 27.5 32.3 25.7 90 1.3 WSW 11 13 6 7 1006.4 1005.8 0.0
18/03:00am 27.7 32.1 25.7 89 1.4 WSW 13 17 7 9 1006.3 1005.7 0.0
18/02:30am 27.8 32.2 25.6 88 1.6 WSW 13 17 7 9 1006.0 1005.4 0.0
18/02:00am 27.9 32.2 25.5 87 1.7 SW 13 19 7 10 1005.9 1005.3 0.0
18/01:30am 28.1 31.5 25.3 85 2.0 WSW 17 20 9 11 1006.1 1005.5 0.0
18/01:00am 28.3 32.0 25.1 83 2.3 WSW 15 20 8 11 1006.3 1005.7 0.0
18/12:30am 28.5 31.3 24.9 81 2.5 WSW 19 24 10 13 1006.1 1005.5 0.0
18/12:00am 28.9 32.7 24.7 78 2.9 WSW 13 17 7 9 1006.3 1005.7 0.0
 
Date/Time
WST
Temp
°C
App
Temp
°C
Dew
Point
Rel
Hum
%
Delta-T
°C
Wind Press
QNH
hPa
Press
MSL
hPa
Rain
since 9 am
mm
Dir
 
Spd
km/h
Gust
km/h
Spd
kts
Gust
kts
17/11:30pm 29.4 33.0 24.3 74 3.6 WSW 13 17 7 9 1006.5 1005.9 0.0
17/11:00pm 29.6 33.3 24.5 74 3.6 WSW 13 15 7 8 1006.7 1006.1 0.0
17/10:30pm 30.0 33.9 24.2 71 4.0 W 11 15 6 8 1006.7 1006.1 0.0
17/10:00pm 30.2 34.7 24.6 72 3.9 WNW 9 13 5 7 1006.7 1006.1 0.0
17/09:30pm 29.8 35.2 25.5 78 3.0 NW 7 9 4 5 1006.3 1005.7 0.0
17/09:00pm 30.3 35.7 25.4 75 3.5 NW 7 9 4 5 1006.0 1005.4 0.0
17/08:30pm 30.7 35.3 24.8 71 4.2 NW 9 13 5 7 1006.0 1005.4 0.0
17/08:00pm 31.3 35.1 23.4 63 5.5 NNW 9 11 5 6 1005.9 1005.3 0.0
17/07:30pm 31.9 36.0 23.2 60 6.0 NW 7 9 4 5 1005.6 1005.0 0.0
17/07:00pm 32.8 35.5 22.9 56 6.8 NW 13 17 7 9 1005.0 1004.4 0.0
17/06:30pm 33.5 36.4 23.2 54 7.1 NNW 13 19 7 10 1004.3 1003.6 0.0
17/06:00pm 34.4 37.8 23.4 52 7.7 NNW 11 17 6 9 1004.1 1003.4 0.0
17/05:30pm 35.2 38.3 22.2 47 8.9 NW 9 13 5 7 1003.9 1003.2 0.0
17/05:00pm 36.2 38.0 20.4 39 10.7 N 11 17 6 9 1003.7 1003.0 0.0
17/04:30pm 36.2 38.6 20.8 40 10.4 NNE 9 15 5 8 1003.7 1003.0 0.0
17/04:00pm 36.7 39.9 21.7 42 10.3 ESE 7 11 4 6 1003.6 1002.9 0.0
17/03:30pm 36.8 39.7 21.8 42 10.3 N 9 17 5 9 1003.6 1002.9 0.0
17/03:00pm 36.0 38.2 21.1 42 10.2 N 11 15 6 8 1003.4 1002.7 0.0
17/02:30pm 35.5 37.4 20.6 41 10.1 NNE 11 15 6 8 1003.8 1003.1 0.0
17/02:00pm 35.2 38.1 21.8 45 9.2 E 9 15 5 8 1004.3 1003.6 0.0
17/01:30pm 34.7 37.4 22.1 48 8.6 ESE 11 19 6 10 1004.9 1004.3 0.0
17/01:00pm 34.7 37.9 23.1 51 8.1 ENE 11 20 6 11 1005.4 1004.8 0.0
17/12:30pm 33.9 37.3 22.7 52 7.7 ESE 9 17 5 9 1005.9 1005.3 0.0
17/12:00pm 34.2 37.5 23.9 55 7.2 E 13 20 7 11 1006.3 1005.7 0.0
17/11:30am 33.4 36.6 23.1 54 7.1 E 11 20 6 11 1006.7 1006.1 0.0
17/11:00am 33.3 36.1 23.0 54 7.1 E 13 20 7 11 1007.2 1006.6 0.0
17/10:30am 32.3 35.4 23.5 59 6.1 E 13 19 7 10 1007.6 1007.0 0.0
17/10:00am 32.8 37.9 25.6 66 5.1 SE 9 17 5 9 1008.0 1007.4 0.0
17/09:30am 31.6 35.5 24.2 65 5.2 S 11 17 6 9 1008.1 1007.5 0.0
17/09:00am 30.8 34.5 25.2 72 4.0 SSE 15 22 8 12 1008.2 1007.6 9.0
17/08:30am 29.9 33.0 24.8 74 3.6 S 17 20 9 11 1008.2 1007.6 9.0
17/08:00am 29.8 33.4 24.4 73 3.8 S 13 19 7 10 1008.2 1007.6 9.0
17/07:30am 29.1 32.6 23.5 72 3.9 S 11 15 6 8 1008.0 1007.4 9.0
17/07:00am 28.4 31.5 22.9 72 3.8 SSE 11 17 6 9 1007.6 1007.0 9.0
17/06:30am 27.0 30.5 23.5 81 2.4 S 11 15 6 8 1007.0 1006.4 9.0
17/06:00am 25.7 31.0 25.0 96 0.5 ESE 6 7 3 4 1006.5 1005.9 9.0
17/05:30am 24.9 29.1 24.7 99 0.1 SSW 11 13 6 7 1005.5 1004.9 9.0
17/05:00am 24.7 29.1 24.5 99 0.1 SW 9 13 5 7 1004.8 1004.2 9.0
17/04:30am 24.6 28.7 24.6 100 0.0 WSW 11 15 6 8 1004.5 1003.8 9.0
17/04:00am 24.6 28.7 24.6 100 0.0 WSW 11 13 6 7 1004.4 1003.7 9.0
17/03:30am 24.5 28.9 24.5 100 0.0 WSW 9 11 5 6 1004.5 1003.8 9.0
17/03:00am 24.4 29.0 24.2 99 0.1 W 7 11 4 6 1004.9 1004.3 9.0
17/02:30am 24.5 29.2 24.3 99 0.1 W 7 11 4 6 1005.2 1004.6 9.0
17/02:00am 24.6 28.9 24.3 98 0.2 W 9 13 5 7 1005.3 1004.7 9.0
17/01:30am 25.0 29.1 24.5 97 0.3 SW 11 13 6 7 1005.6 1005.0 9.0
17/01:00am 25.0 29.0 23.8 93 0.8 SSE 9 11 5 6 1006.2 1005.6 9.0
17/12:30am 25.2 29.5 24.2 94 0.7 SE 9 11 5 6 1006.7 1006.1 9.0
17/12:00am 25.2 29.8 24.2 94 0.7 SE 7 11 4 6 1007.4 1006.8 9.0
 
Date/Time
WST
Temp
°C
App
Temp
°C
Dew
Point
Rel
Hum
%
Delta-T
°C
Wind Press
QNH
hPa
Press
MSL
hPa
Rain
since 9 am
mm
Dir
 
Spd
km/h
Gust
km/h
Spd
kts
Gust
kts
16/11:30pm 25.4 29.4 23.8 91 1.1 SSE 9 13 5 7 1007.3 1006.7 9.0
16/11:00pm 25.1 27.7 23.9 93 0.8 SSE 17 26 9 14 1007.1 1006.5 9.0
16/10:30pm 25.3 27.8 24.4 95 0.6 S 19 24 10 13 1007.8 1007.2 9.0
16/10:00pm 25.6 28.6 24.7 95 0.6 S 17 32 9 17 1008.2 1007.6 9.0
16/09:30pm 25.2 29.3 23.3 89 1.3 ENE 7 11 4 6 1007.7 1007.1 8.8
16/09:00pm 25.7 29.8 24.5 93 0.8 WNW 11 15 6 8 1008.3 1007.7 8.0
16/08:30pm 25.2 28.7 24.2 94 0.7 NNE 13 20 7 11 1007.3 1006.7 7.8
16/08:00pm 24.7 28.2 24.2 97 0.3 NNW 13 17 7 9 1007.6 1007.0 7.8
16/07:30pm 24.9 28.3 24.0 95 0.6 S 13 20 7 11 1007.5 1006.9 7.8
16/07:00pm 24.7 27.7 24.0 96 0.5 SSW 15 22 8 12 1008.2 1007.6 7.6
16/06:30pm 24.2 25.4 23.2 94 0.7 ESE 22 39 12 21 1007.9 1007.3 7.0
16/06:00pm 24.1 22.9 22.7 92 0.9 ENE 33 56 18 30 1006.4 1005.8 2.2
16/05:39pm 28.1 24.5 20.1 62 5.3 E 39 70 21 38 1005.7 1005.1 0.0
16/05:31pm 29.3 28.9 20.2 58 6.0 ENE 22 52 12 28 1005.6 1005.0 0.0
16/05:30pm 29.6 29.8 20.5 58 6.0 ENE 20 41 11 22 1005.6 1005.0 0.0
16/05:28pm 30.1 30.9 20.6 56 6.3 NE 17 41 9 22 1005.7 1005.1 0.0
16/05:00pm 34.1 37.3 24.9 58 6.5 NW 17 20 9 11 1004.2 1003.5 0.0
16/04:30pm 35.9 38.8 25.1 53 7.7 NW 19 28 10 15 1003.1 1002.4 0.0
16/04:00pm 36.5 39.4 24.4 50 8.6 NW 17 26 9 14 1002.7 1002.0 0.0
16/03:30pm 37.2 39.6 23.6 45 9.6 NW 17 26 9 14 1002.5 1001.8 0.0
16/03:00pm 37.7 38.0 20.5 36 11.7 NNW 19 30 10 16 1002.8 1002.1 0.0
16/02:30pm 37.8 39.7 22.7 42 10.5 NW 17 26 9 14 1002.9 1002.2 0.0

Other Formats:

Comma delimited format used in spreadsheet applications
http://www.bom.gov.au/fwo/IDW60801/IDW60801.94204.axf

JavaScript Object Notation format (JSON) in row-major order
http://www.bom.gov.au/fwo/IDW60801/IDW60801.94204.json